sensor_id;sensor_type;location;lat;lon;timestamp;pressure;altitude;pressure_sealevel;temperature;humidity
7668;BME280;3876;42.204;24.686;2023-04-23T00:01:12;99454.50;;;14.65;100.00
7668;BME280;3876;42.204;24.686;2023-04-23T00:03:41;99455.81;;;14.55;100.00
7668;BME280;3876;42.204;24.686;2023-04-23T00:06:09;99460.28;;;14.33;100.00
7668;BME280;3876;42.204;24.686;2023-04-23T00:08:38;99457.28;;;14.22;100.00
7668;BME280;3876;42.204;24.686;2023-04-23T00:11:06;99460.81;;;14.01;100.00
7668;BME280;3876;42.204;24.686;2023-04-23T00:13:35;99458.75;;;13.89;100.00
7668;BME280;3876;42.204;24.686;2023-04-23T00:16:03;99456.25;;;13.87;100.00
7668;BME280;3876;42.204;24.686;2023-04-23T00:18:30;99454.56;;;13.86;100.00
7668;BME280;3876;42.204;24.686;2023-04-23T00:20:57;99452.91;;;13.85;100.00
7668;BME280;3876;42.204;24.686;2023-04-23T00:23:23;99460.81;;;13.81;100.00
7668;BME280;3876;42.204;24.686;2023-04-23T00:25:50;99451.28;;;13.62;100.00
7668;BME280;3876;42.204;24.686;2023-04-23T00:28:18;99457.34;;;13.61;100.00
7668;BME280;3876;42.204;24.686;2023-04-23T00:30:46;99456.00;;;13.31;100.00
7668;BME280;3876;42.204;24.686;2023-04-23T00:33:13;99457.84;;;13.06;100.00
7668;BME280;3876;42.204;24.686;2023-04-23T00:35:40;99456.31;;;13.02;100.00
7668;BME280;3876;42.204;24.686;2023-04-23T00:38:07;99463.25;;;13.00;100.00
7668;BME280;3876;42.204;24.686;2023-04-23T00:40:33;99462.00;;;12.88;100.00
7668;BME280;3876;42.204;24.686;2023-04-23T00:43:01;99457.47;;;12.72;100.00
7668;BME280;3876;42.204;24.686;2023-04-23T00:45:28;99466.41;;;12.63;100.00
7668;BME280;3876;42.204;24.686;2023-04-23T00:47:57;99464.22;;;12.52;100.00
7668;BME280;3876;42.204;24.686;2023-04-23T00:50:24;99464.78;;;12.37;100.00
7668;BME280;3876;42.204;24.686;2023-04-23T00:52:50;99464.78;;;12.37;100.00
7668;BME280;3876;42.204;24.686;2023-04-23T00:55:17;99460.78;;;12.29;100.00
7668;BME280;3876;42.204;24.686;2023-04-23T00:57:45;99463.88;;;12.38;100.00
7668;BME280;3876;42.204;24.686;2023-04-23T01:00:13;99473.75;;;12.49;100.00
7668;BME280;3876;42.204;24.686;2023-04-23T01:02:40;99478.06;;;12.48;100.00
7668;BME280;3876;42.204;24.686;2023-04-23T01:05:10;99471.25;;;12.47;100.00
7668;BME280;3876;42.204;24.686;2023-04-23T01:07:40;99469.47;;;12.49;100.00
7668;BME280;3876;42.204;24.686;2023-04-23T01:10:10;99473.03;;;12.45;100.00
7668;BME280;3876;42.204;24.686;2023-04-23T01:12:36;99448.50;;;12.37;100.00
7668;BME280;3876;42.204;24.686;2023-04-23T01:15:04;99470.69;;;12.39;100.00
7668;BME280;3876;42.204;24.686;2023-04-23T01:17:32;99468.34;;;12.33;100.00
7668;BME280;3876;42.204;24.686;2023-04-23T01:19:58;99476.00;;;12.35;100.00
7668;BME280;3876;42.204;24.686;2023-04-23T01:22:27;99469.97;;;12.36;100.00
7668;BME280;3876;42.204;24.686;2023-04-23T01:24:53;99468.13;;;12.39;100.00
7668;BME280;3876;42.204;24.686;2023-04-23T01:27:20;99468.00;;;12.42;100.00
7668;BME280;3876;42.204;24.686;2023-04-23T01:29:49;99473.03;;;12.45;100.00
7668;BME280;3876;42.204;24.686;2023-04-23T01:32:16;99469.59;;;12.46;100.00
7668;BME280;3876;42.204;24.686;2023-04-23T01:34:43;99474.84;;;12.43;100.00
7668;BME280;3876;42.204;24.686;2023-04-23T01:37:11;99476.72;;;12.38;100.00
7668;BME280;3876;42.204;24.686;2023-04-23T01:39:40;99474.94;;;12.40;100.00
7668;BME280;3876;42.204;24.686;2023-04-23T01:42:07;99481.25;;;12.32;100.00
7668;BME280;3876;42.204;24.686;2023-04-23T01:44:34;99476.81;;;12.12;100.00
7668;BME280;3876;42.204;24.686;2023-04-23T01:47:01;99478.84;;;12.02;100.00
7668;BME280;3876;42.204;24.686;2023-04-23T01:49:28;99476.34;;;12.01;100.00
7668;BME280;3876;42.204;24.686;2023-04-23T01:51:55;99477.94;;;12.05;100.00
7668;BME280;3876;42.204;24.686;2023-04-23T01:54:21;99482.44;;;11.98;100.00
7668;BME280;3876;42.204;24.686;2023-04-23T01:56:50;99483.16;;;12.02;100.00
7668;BME280;3876;42.204;24.686;2023-04-23T01:59:19;99489.66;;;12.12;100.00
7668;BME280;3876;42.204;24.686;2023-04-23T02:01:47;99488.63;;;12.18;100.00
7668;BME280;3876;42.204;24.686;2023-04-23T02:04:15;99467.66;;;12.05;100.00
7668;BME280;3876;42.204;24.686;2023-04-23T02:06:45;99480.94;;;12.16;100.00
7668;BME280;3876;42.204;24.686;2023-04-23T02:09:12;99494.22;;;12.29;100.00
7668;BME280;3876;42.204;24.686;2023-04-23T02:11:39;99492.47;;;12.29;100.00
7668;BME280;3876;42.204;24.686;2023-04-23T02:14:09;99485.84;;;12.24;100.00
7668;BME280;3876;42.204;24.686;2023-04-23T02:16:36;99476.78;;;12.14;100.00
7668;BME280;3876;42.204;24.686;2023-04-23T02:19:04;99491.22;;;12.16;100.00
7668;BME280;3876;42.204;24.686;2023-04-23T02:21:30;99488.38;;;12.00;100.00
7668;BME280;3876;42.204;24.686;2023-04-23T02:23:57;99493.81;;;11.91;100.00
7668;BME280;3876;42.204;24.686;2023-04-23T02:26:24;99492.09;;;11.92;100.00
7668;BME280;3876;42.204;24.686;2023-04-23T02:28:51;99489.03;;;11.81;100.00
7668;BME280;3876;42.204;24.686;2023-04-23T02:31:19;99490.63;;;11.85;100.00
7668;BME280;3876;42.204;24.686;2023-04-23T02:33:46;99493.66;;;11.96;100.00
7668;BME280;3876;42.204;24.686;2023-04-23T02:36:13;99493.41;;;12.03;100.00
7668;BME280;3876;42.204;24.686;2023-04-23T02:38:40;99494.78;;;12.12;100.00
7668;BME280;3876;42.204;24.686;2023-04-23T02:41:09;99483.88;;;12.05;100.00
7668;BME280;3876;42.204;24.686;2023-04-23T02:43:36;99495.38;;;12.20;100.00
7668;BME280;3876;42.204;24.686;2023-04-23T02:46:02;99495.38;;;12.20;100.00
7668;BME280;3876;42.204;24.686;2023-04-23T02:48:35;99498.09;;;12.16;100.00
7668;BME280;3876;42.204;24.686;2023-04-23T02:51:02;99496.38;;;12.16;100.00
7668;BME280;3876;42.204;24.686;2023-04-23T02:53:30;99503.47;;;12.09;100.00
7668;BME280;3876;42.204;24.686;2023-04-23T02:55:57;99508.66;;;12.08;100.00
7668;BME280;3876;42.204;24.686;2023-04-23T02:58:24;99502.69;;;12.07;100.00
7668;BME280;3876;42.204;24.686;2023-04-23T03:00:51;99507.81;;;12.07;100.00
7668;BME280;3876;42.204;24.686;2023-04-23T03:03:18;99503.78;;;12.00;100.00
7668;BME280;3876;42.204;24.686;2023-04-23T03:05:46;99507.34;;;11.96;100.00
7668;BME280;3876;42.204;24.686;2023-04-23T03:08:13;99516.00;;;11.94;100.00
7668;BME280;3876;42.204;24.686;2023-04-23T03:10:40;99518.16;;;11.80;100.00
7668;BME280;3876;42.204;24.686;2023-04-23T03:13:06;99518.88;;;11.57;100.00
7668;BME280;3876;42.204;24.686;2023-04-23T03:15:33;99519.38;;;11.42;100.00
7668;BME280;3876;42.204;24.686;2023-04-23T03:18:00;99514.31;;;11.40;100.00
7668;BME280;3876;42.204;24.686;2023-04-23T03:20:28;99520.53;;;11.33;100.00
7668;BME280;3876;42.204;24.686;2023-04-23T03:22:57;99520.56;;;11.32;100.00
7668;BME280;3876;42.204;24.686;2023-04-23T03:25:23;99522.44;;;11.27;100.00
7668;BME280;3876;42.204;24.686;2023-04-23T03:27:50;99516.69;;;11.19;100.00
7668;BME280;3876;42.204;24.686;2023-04-23T03:30:18;99521.03;;;11.17;100.00
7668;BME280;3876;42.204;24.686;2023-04-23T03:32:45;99525.44;;;11.13;100.00
7668;BME280;3876;42.204;24.686;2023-04-23T03:35:11;99526.41;;;11.09;100.00
7668;BME280;3876;42.204;24.686;2023-04-23T03:37:38;99525.00;;;10.99;100.00
7668;BME280;3876;42.204;24.686;2023-04-23T03:40:08;99522.56;;;10.94;100.00
7668;BME280;3876;42.204;24.686;2023-04-23T03:42:35;99520.84;;;10.95;100.00
7668;BME280;3876;42.204;24.686;2023-04-23T03:45:02;99521.84;;;10.89;100.00
7668;BME280;3876;42.204;24.686;2023-04-23T03:47:29;99524.41;;;10.91;100.00
7668;BME280;3876;42.204;24.686;2023-04-23T03:49:56;99523.38;;;10.96;100.00
7668;BME280;3876;42.204;24.686;2023-04-23T03:52:23;99498.75;;;10.91;100.00
7668;BME280;3876;42.204;24.686;2023-04-23T03:54:50;99535.88;;;11.07;100.00
7668;BME280;3876;42.204;24.686;2023-04-23T03:57:19;99526.41;;;11.09;100.00
7668;BME280;3876;42.204;24.686;2023-04-23T03:59:46;99525.41;;;11.15;100.00
7668;BME280;3876;42.204;24.686;2023-04-23T04:02:12;99528.59;;;11.21;100.00
7668;BME280;3876;42.204;24.686;2023-04-23T04:04:39;99526.72;;;11.26;100.00
7668;BME280;3876;42.204;24.686;2023-04-23T04:07:07;99530.19;;;11.25;100.00
7668;BME280;3876;42.204;24.686;2023-04-23T04:09:36;99537.94;;;11.24;100.00
7668;BME280;3876;42.204;24.686;2023-04-23T04:12:03;99520.19;;;11.16;100.00
7668;BME280;3876;42.204;24.686;2023-04-23T04:14:31;99543.44;;;11.39;100.00
7668;BME280;3876;42.204;24.686;2023-04-23T04:16:58;99549.88;;;11.52;100.00
7668;BME280;3876;42.204;24.686;2023-04-23T04:19:25;99548.72;;;11.61;100.00
7668;BME280;3876;42.204;24.686;2023-04-23T04:21:52;99554.44;;;11.71;100.00
7668;BME280;3876;42.204;24.686;2023-04-23T04:24:18;99560.13;;;11.80;100.00
7668;BME280;3876;42.204;24.686;2023-04-23T04:26:47;99563.22;;;11.90;100.00
7668;BME280;3876;42.204;24.686;2023-04-23T04:29:14;99563.94;;;11.95;100.00
7668;BME280;3876;42.204;24.686;2023-04-23T04:31:44;99562.72;;;12.05;100.00
7668;BME280;3876;42.204;24.686;2023-04-23T04:34:11;99574.41;;;12.14;100.00
7668;BME280;3876;42.204;24.686;2023-04-23T04:36:39;99575.19;;;12.16;100.00
7668;BME280;3876;42.204;24.686;2023-04-23T04:39:06;99580.81;;;12.27;100.00
7668;BME280;3876;42.204;24.686;2023-04-23T04:41:33;99579.66;;;12.35;100.00
7668;BME280;3876;42.204;24.686;2023-04-23T04:44:01;99587.97;;;12.43;100.00
7668;BME280;3876;42.204;24.686;2023-04-23T04:46:28;99592.72;;;12.54;100.00
7668;BME280;3876;42.204;24.686;2023-04-23T04:48:57;99574.09;;;12.47;100.00
7668;BME280;3876;42.204;24.686;2023-04-23T04:51:24;99587.94;;;12.68;100.00
7668;BME280;3876;42.204;24.686;2023-04-23T04:53:51;99592.13;;;12.71;100.00
7668;BME280;3876;42.204;24.686;2023-04-23T04:56:18;99597.25;;;12.71;100.00
7668;BME280;3876;42.204;24.686;2023-04-23T04:58:46;99583.84;;;12.62;100.00
7668;BME280;3876;42.204;24.686;2023-04-23T05:01:13;99604.09;;;12.72;100.00
7668;BME280;3876;42.204;24.686;2023-04-23T05:03:40;99602.41;;;12.71;100.00
7668;BME280;3876;42.204;24.686;2023-04-23T05:06:08;99602.28;;;12.74;100.00
7668;BME280;3876;42.204;24.686;2023-04-23T05:08:35;99591.28;;;12.70;100.00
7668;BME280;3876;42.204;24.686;2023-04-23T05:11:03;99604.88;;;12.74;100.00
7668;BME280;3876;42.204;24.686;2023-04-23T05:13:30;99598.00;;;12.74;100.00
7668;BME280;3876;42.204;24.686;2023-04-23T05:15:57;99598.84;;;12.75;100.00
7668;BME280;3876;42.204;24.686;2023-04-23T05:18:24;99603.53;;;12.87;100.00
7668;BME280;3876;42.204;24.686;2023-04-23T05:20:51;99602.31;;;12.97;100.00
7668;BME280;3876;42.204;24.686;2023-04-23T05:23:19;99606.34;;;13.04;100.00
7668;BME280;3876;42.204;24.686;2023-04-23T05:25:46;99611.91;;;13.17;100.00
7668;BME280;3876;42.204;24.686;2023-04-23T05:28:13;99612.47;;;13.25;100.00
7668;BME280;3876;42.204;24.686;2023-04-23T05:30:40;99618.31;;;13.28;100.00
7668;BME280;3876;42.204;24.686;2023-04-23T05:33:07;99613.63;;;13.39;100.00
7668;BME280;3876;42.204;24.686;2023-04-23T05:35:34;99614.06;;;13.50;100.00
7668;BME280;3876;42.204;24.686;2023-04-23T05:38:01;99615.34;;;13.60;100.00
7668;BME280;3876;42.204;24.686;2023-04-23T05:40:30;99609.19;;;13.64;100.00
7668;BME280;3876;42.204;24.686;2023-04-23T05:42:57;99629.91;;;13.83;100.00
7668;BME280;3876;42.204;24.686;2023-04-23T05:45:24;99625.00;;;13.99;100.00
7668;BME280;3876;42.204;24.686;2023-04-23T05:47:51;99622.94;;;14.07;99.80
7668;BME280;3876;42.204;24.686;2023-04-23T05:50:19;99622.13;;;14.27;99.67
7668;BME280;3876;42.204;24.686;2023-04-23T05:52:46;99611.41;;;14.37;100.00
7668;BME280;3876;42.204;24.686;2023-04-23T05:55:13;99633.47;;;14.83;100.00
7668;BME280;3876;42.204;24.686;2023-04-23T05:57:41;99642.63;;;15.09;97.70
7668;BME280;3876;42.204;24.686;2023-04-23T06:00:09;99620.03;;;15.14;97.02
7668;BME280;3876;42.204;24.686;2023-04-23T06:02:36;99635.25;;;15.39;95.53
7668;BME280;3876;42.204;24.686;2023-04-23T06:05:04;99637.38;;;15.49;95.75
7668;BME280;3876;42.204;24.686;2023-04-23T06:07:31;99645.81;;;15.34;91.72
7668;BME280;3876;42.204;24.686;2023-04-23T06:09:58;99649.59;;;15.27;91.39
7668;BME280;3876;42.204;24.686;2023-04-23T06:12:25;99645.41;;;15.24;92.73
7668;BME280;3876;42.204;24.686;2023-04-23T06:14:53;99633.19;;;15.28;92.81
7668;BME280;3876;42.204;24.686;2023-04-23T06:17:20;99632.06;;;15.34;93.39
7668;BME280;3876;42.204;24.686;2023-04-23T06:19:46;99631.06;;;15.36;93.28
7668;BME280;3876;42.204;24.686;2023-04-23T06:22:13;99641.25;;;15.39;92.32
7668;BME280;3876;42.204;24.686;2023-04-23T06:24:40;99646.56;;;15.36;91.76
7668;BME280;3876;42.204;24.686;2023-04-23T06:27:07;99642.16;;;15.38;91.94
7668;BME280;3876;42.204;24.686;2023-04-23T06:29:33;99642.09;;;15.40;91.62
7668;BME280;3876;42.204;24.686;2023-04-23T06:32:02;99647.56;;;15.34;91.56
7668;BME280;3876;42.204;24.686;2023-04-23T06:34:29;99647.75;;;15.29;90.70
7668;BME280;3876;42.204;24.686;2023-04-23T06:36:56;99644.13;;;15.33;90.94
7668;BME280;3876;42.204;24.686;2023-04-23T06:39:23;99641.28;;;15.20;87.15
7668;BME280;3876;42.204;24.686;2023-04-23T06:41:50;99648.13;;;15.21;87.41
7668;BME280;3876;42.204;24.686;2023-04-23T06:44:16;99647.75;;;15.10;88.18
7668;BME280;3876;42.204;24.686;2023-04-23T06:46:43;99644.31;;;15.10;89.27
7668;BME280;3876;42.204;24.686;2023-04-23T06:49:11;99642.25;;;15.18;89.74
7668;BME280;3876;42.204;24.686;2023-04-23T06:51:38;99650.06;;;15.16;88.62
7668;BME280;3876;42.204;24.686;2023-04-23T06:54:05;99640.88;;;14.91;90.68
7668;BME280;3876;42.204;24.686;2023-04-23T06:56:32;99645.16;;;14.92;90.76
7668;BME280;3876;42.204;24.686;2023-04-23T06:58:58;99645.44;;;15.04;90.82
7668;BME280;3876;42.204;24.686;2023-04-23T07:01:25;99645.59;;;15.20;91.06
7668;BME280;3876;42.204;24.686;2023-04-23T07:03:52;99648.94;;;15.22;89.48
7668;BME280;3876;42.204;24.686;2023-04-23T07:06:20;99637.94;;;15.37;89.23
7668;BME280;3876;42.204;24.686;2023-04-23T07:08:47;99645.59;;;15.57;88.49
7668;BME280;3876;42.204;24.686;2023-04-23T07:11:14;99645.09;;;15.51;88.60
7668;BME280;3876;42.204;24.686;2023-04-23T07:13:41;99649.94;;;15.75;86.31
7668;BME280;3876;42.204;24.686;2023-04-23T07:16:08;99633.69;;;15.91;85.56
7668;BME280;3876;42.204;24.686;2023-04-23T07:18:35;99643.69;;;16.33;88.84
7668;BME280;3876;42.204;24.686;2023-04-23T07:21:02;99649.69;;;16.50;82.19
7668;BME280;3876;42.204;24.686;2023-04-23T07:23:30;99649.25;;;16.59;85.15
7668;BME280;3876;42.204;24.686;2023-04-23T07:25:57;99645.03;;;16.74;85.24
7668;BME280;3876;42.204;24.686;2023-04-23T07:28:24;99642.66;;;16.87;87.31
7668;BME280;3876;42.204;24.686;2023-04-23T07:30:50;99639.69;;;17.10;87.11
7668;BME280;3876;42.204;24.686;2023-04-23T07:33:17;99639.19;;;17.03;83.53
7668;BME280;3876;42.204;24.686;2023-04-23T07:35:44;99629.84;;;17.16;84.02
7668;BME280;3876;42.204;24.686;2023-04-23T07:38:11;99622.03;;;17.33;83.39
7668;BME280;3876;42.204;24.686;2023-04-23T07:40:39;99633.34;;;17.64;85.46
7668;BME280;3876;42.204;24.686;2023-04-23T07:43:06;99638.72;;;17.91;82.21
7668;BME280;3876;42.204;24.686;2023-04-23T07:45:32;99641.53;;;18.17;79.66
7668;BME280;3876;42.204;24.686;2023-04-23T07:47:59;99635.19;;;18.37;80.69
7668;BME280;3876;42.204;24.686;2023-04-23T07:50:26;99637.38;;;18.59;82.40
7668;BME280;3876;42.204;24.686;2023-04-23T07:52:53;99641.78;;;18.86;85.10
7668;BME280;3876;42.204;24.686;2023-04-23T07:55:20;99634.91;;;19.14;79.11
7668;BME280;3876;42.204;24.686;2023-04-23T07:57:48;99629.97;;;19.23;79.30
7668;BME280;3876;42.204;24.686;2023-04-23T08:00:15;99637.31;;;19.31;76.40
7668;BME280;3876;42.204;24.686;2023-04-23T08:02:42;99626.09;;;19.45;76.57
7668;BME280;3876;42.204;24.686;2023-04-23T08:05:09;99627.88;;;19.71;78.41
7668;BME280;3876;42.204;24.686;2023-04-23T08:07:36;99624.13;;;19.75;76.84
7668;BME280;3876;42.204;24.686;2023-04-23T08:10:03;99634.69;;;19.86;74.03
7668;BME280;3876;42.204;24.686;2023-04-23T08:12:31;99628.34;;;19.90;72.09
7668;BME280;3876;42.204;24.686;2023-04-23T08:15:01;99629.56;;;19.84;73.50
7668;BME280;3876;42.204;24.686;2023-04-23T08:17:29;99622.22;;;19.64;73.01
7668;BME280;3876;42.204;24.686;2023-04-23T08:19:55;99628.34;;;19.63;72.67
7668;BME280;3876;42.204;24.686;2023-04-23T08:22:22;99626.03;;;19.85;75.30
7668;BME280;3876;42.204;24.686;2023-04-23T08:24:49;99620.78;;;20.00;74.67
7668;BME280;3876;42.204;24.686;2023-04-23T08:27:16;99620.50;;;20.17;73.19
7668;BME280;3876;42.204;24.686;2023-04-23T08:29:42;99628.22;;;20.18;71.58
7668;BME280;3876;42.204;24.686;2023-04-23T08:32:11;99629.53;;;19.99;71.79
7668;BME280;3876;42.204;24.686;2023-04-23T08:34:37;99627.91;;;19.83;72.35
7668;BME280;3876;42.204;24.686;2023-04-23T08:37:05;99620.69;;;19.74;73.93
7668;BME280;3876;42.204;24.686;2023-04-23T08:39:32;99619.31;;;19.96;72.34
7668;BME280;3876;42.204;24.686;2023-04-23T08:42:04;99614.50;;;19.63;72.38
7668;BME280;3876;42.204;24.686;2023-04-23T08:44:35;99613.63;;;19.76;72.41
7668;BME280;3876;42.204;24.686;2023-04-23T08:47:04;99606.38;;;19.94;74.11
7668;BME280;3876;42.204;24.686;2023-04-23T08:49:33;99614.94;;;19.69;70.10
7668;BME280;3876;42.204;24.686;2023-04-23T08:52:06;99614.25;;;19.39;71.02
7668;BME280;3876;42.204;24.686;2023-04-23T08:54:36;99603.84;;;19.39;72.06
7668;BME280;3876;42.204;24.686;2023-04-23T08:57:07;99614.09;;;19.42;70.78
7668;BME280;3876;42.204;24.686;2023-04-23T08:59:35;99609.47;;;19.74;71.13
7668;BME280;3876;42.204;24.686;2023-04-23T09:02:02;99606.63;;;20.04;71.20
7668;BME280;3876;42.204;24.686;2023-04-23T09:04:36;99599.13;;;19.72;70.41
7668;BME280;3876;42.204;24.686;2023-04-23T09:07:03;99593.72;;;20.02;71.55
7668;BME280;3876;42.204;24.686;2023-04-23T09:09:32;99603.31;;;20.14;69.82
7668;BME280;3876;42.204;24.686;2023-04-23T09:12:00;99600.47;;;20.31;67.42
7668;BME280;3876;42.204;24.686;2023-04-23T09:14:27;99594.66;;;19.74;68.04
7668;BME280;3876;42.204;24.686;2023-04-23T09:16:54;99585.25;;;19.59;71.29
7668;BME280;3876;42.204;24.686;2023-04-23T09:19:20;99580.13;;;19.84;72.85
7668;BME280;3876;42.204;24.686;2023-04-23T09:21:50;99592.00;;;19.88;70.47
7668;BME280;3876;42.204;24.686;2023-04-23T09:24:20;99589.16;;;20.06;68.07
7668;BME280;3876;42.204;24.686;2023-04-23T09:26:48;99589.94;;;19.93;67.08
7668;BME280;3876;42.204;24.686;2023-04-23T09:29:16;99596.38;;;19.88;62.88
7668;BME280;3876;42.204;24.686;2023-04-23T09:31:47;99577.06;;;20.05;63.00
7668;BME280;3876;42.204;24.686;2023-04-23T09:34:15;99589.41;;;20.28;61.97
7668;BME280;3876;42.204;24.686;2023-04-23T09:36:42;99582.34;;;20.42;61.45
7668;BME280;3876;42.204;24.686;2023-04-23T09:39:15;99591.75;;;20.45;59.28
7668;BME280;3876;42.204;24.686;2023-04-23T09:41:43;99581.63;;;20.53;60.57
7668;BME280;3876;42.204;24.686;2023-04-23T09:44:11;99574.41;;;20.69;59.00
7668;BME280;3876;42.204;24.686;2023-04-23T09:46:39;99570.34;;;20.65;60.46
7668;BME280;3876;42.204;24.686;2023-04-23T09:49:07;99575.16;;;20.59;58.89
7668;BME280;3876;42.204;24.686;2023-04-23T09:51:35;99567.56;;;20.43;63.74
7668;BME280;3876;42.204;24.686;2023-04-23T09:54:03;99565.50;;;20.48;60.28
7668;BME280;3876;42.204;24.686;2023-04-23T09:56:32;99564.44;;;20.38;60.66
7668;BME280;3876;42.204;24.686;2023-04-23T09:58:59;99557.75;;;20.34;61.30
7668;BME280;3876;42.204;24.686;2023-04-23T10:01:29;99555.41;;;20.17;63.16
7668;BME280;3876;42.204;24.686;2023-04-23T10:03:56;99540.13;;;20.12;63.39
7668;BME280;3876;42.204;24.686;2023-04-23T10:06:27;99545.03;;;20.42;65.02
7668;BME280;3876;42.204;24.686;2023-04-23T10:08:57;99539.94;;;20.53;64.60
7668;BME280;3876;42.204;24.686;2023-04-23T10:11:24;99546.81;;;20.67;62.51
7668;BME280;3876;42.204;24.686;2023-04-23T10:13:52;99547.13;;;20.62;58.74
7668;BME280;3876;42.204;24.686;2023-04-23T10:16:21;99544.22;;;20.41;61.27
7668;BME280;3876;42.204;24.686;2023-04-23T10:18:49;99527.00;;;20.14;60.05
7668;BME280;3876;42.204;24.686;2023-04-23T10:21:19;99538.41;;;20.38;60.06
7668;BME280;3876;42.204;24.686;2023-04-23T10:23:46;99527.81;;;20.14;59.22
7668;BME280;3876;42.204;24.686;2023-04-23T10:26:17;99528.69;;;20.40;60.72
7668;BME280;3876;42.204;24.686;2023-04-23T10:28:46;99523.38;;;20.67;61.57
7668;BME280;3876;42.204;24.686;2023-04-23T10:31:17;99515.88;;;20.37;61.62
7668;BME280;3876;42.204;24.686;2023-04-23T10:33:46;99514.75;;;20.28;59.61
7668;BME280;3876;42.204;24.686;2023-04-23T10:36:15;99502.16;;;20.35;60.36
7668;BME280;3876;42.204;24.686;2023-04-23T10:38:44;99498.59;;;20.61;61.51
7668;BME280;3876;42.204;24.686;2023-04-23T10:41:15;99503.53;;;20.89;60.36
7668;BME280;3876;42.204;24.686;2023-04-23T10:43:43;99495.97;;;21.10;60.80
7668;BME280;3876;42.204;24.686;2023-04-23T10:46:29;99505.16;;;20.90;57.73
7668;BME280;3876;42.204;24.686;2023-04-23T10:49:06;99498.78;;;20.58;57.34
7668;BME280;3876;42.204;24.686;2023-04-23T10:51:34;99481.63;;;20.30;60.21
7668;BME280;3876;42.204;24.686;2023-04-23T10:54:04;99482.66;;;20.53;59.40
7668;BME280;3876;42.204;24.686;2023-04-23T10:56:31;99482.75;;;20.64;60.24
7668;BME280;3876;42.204;24.686;2023-04-23T10:58:58;99477.41;;;20.66;59.43
7668;BME280;3876;42.204;24.686;2023-04-23T11:01:27;99477.84;;;20.60;56.61
7668;BME280;3876;42.204;24.686;2023-04-23T11:03:55;99471.50;;;20.51;57.79
7668;BME280;3876;42.204;24.686;2023-04-23T11:06:49;99478.78;;;20.59;58.29
7668;BME280;3876;42.204;24.686;2023-04-23T11:09:37;99474.19;;;20.62;54.42
7668;BME280;3876;42.204;24.686;2023-04-23T11:12:09;99463.31;;;20.68;56.32
7668;BME280;3876;42.204;24.686;2023-04-23T11:14:41;99465.81;;;20.82;54.98
7668;BME280;3876;42.204;24.686;2023-04-23T11:17:11;99464.63;;;20.50;54.61
7668;BME280;3876;42.204;24.686;2023-04-23T11:19:40;99442.00;;;20.63;56.57
7668;BME280;3876;42.204;24.686;2023-04-23T11:22:12;99458.66;;;20.97;54.57
7668;BME280;3876;42.204;24.686;2023-04-23T11:24:41;99457.59;;;21.12;57.21
7668;BME280;3876;42.204;24.686;2023-04-23T11:27:11;99459.72;;;20.94;54.22
7668;BME280;3876;42.204;24.686;2023-04-23T11:29:40;99452.63;;;20.97;54.41
7668;BME280;3876;42.204;24.686;2023-04-23T11:32:07;99457.69;;;21.11;55.23
7668;BME280;3876;42.204;24.686;2023-04-23T11:34:40;99454.94;;;21.25;53.01
7668;BME280;3876;42.204;24.686;2023-04-23T11:37:09;99445.44;;;21.24;54.00
7668;BME280;3876;42.204;24.686;2023-04-23T11:39:36;99452.09;;;21.28;53.03
7668;BME280;3876;42.204;24.686;2023-04-23T11:42:08;99448.78;;;21.26;54.54
7668;BME280;3876;42.204;24.686;2023-04-23T11:44:37;99443.75;;;20.99;51.51
7668;BME280;3876;42.204;24.686;2023-04-23T11:47:06;99446.63;;;20.83;50.95
7668;BME280;3876;42.204;24.686;2023-04-23T11:49:33;99445.13;;;20.92;54.17
7668;BME280;3876;42.204;24.686;2023-04-23T11:52:03;99445.44;;;21.00;55.05
7668;BME280;3876;42.204;24.686;2023-04-23T11:54:30;99421.94;;;20.76;52.36
7668;BME280;3876;42.204;24.686;2023-04-23T11:56:57;99430.56;;;20.89;53.89
7668;BME280;3876;42.204;24.686;2023-04-23T11:59:25;99429.81;;;20.87;51.70
7668;BME280;3876;42.204;24.686;2023-04-23T12:01:53;99423.88;;;20.85;55.28
7668;BME280;3876;42.204;24.686;2023-04-23T12:04:21;99427.50;;;20.95;51.94
7668;BME280;3876;42.204;24.686;2023-04-23T12:06:49;99421.34;;;20.97;50.36
7668;BME280;3876;42.204;24.686;2023-04-23T12:09:19;99402.59;;;20.91;52.47
7668;BME280;3876;42.204;24.686;2023-04-23T12:11:47;99412.34;;;21.01;54.64
7668;BME280;3876;42.204;24.686;2023-04-23T12:14:15;99410.59;;;21.25;55.17
7668;BME280;3876;42.204;24.686;2023-04-23T12:16:43;99408.75;;;21.38;52.89
7668;BME280;3876;42.204;24.686;2023-04-23T12:19:13;99387.91;;;21.14;52.73
7668;BME280;3876;42.204;24.686;2023-04-23T12:21:49;99409.72;;;21.13;51.26
7668;BME280;3876;42.204;24.686;2023-04-23T12:24:21;99392.34;;;21.25;52.81
7668;BME280;3876;42.204;24.686;2023-04-23T12:26:49;99365.38;;;21.13;52.67
7668;BME280;3876;42.204;24.686;2023-04-23T12:29:19;99393.13;;;21.49;49.89
7668;BME280;3876;42.204;24.686;2023-04-23T12:31:47;99386.19;;;21.26;49.56
7668;BME280;3876;42.204;24.686;2023-04-23T12:34:14;99387.94;;;21.02;50.14
7668;BME280;3876;42.204;24.686;2023-04-23T12:36:44;99383.09;;;20.73;50.12
7668;BME280;3876;42.204;24.686;2023-04-23T12:39:33;99375.59;;;20.69;52.83
7668;BME280;3876;42.204;24.686;2023-04-23T12:42:02;99374.53;;;20.71;51.12
7668;BME280;3876;42.204;24.686;2023-04-23T12:44:29;99373.88;;;20.80;54.23
7668;BME280;3876;42.204;24.686;2023-04-23T12:46:59;99365.47;;;20.77;53.07
7668;BME280;3876;42.204;24.686;2023-04-23T12:49:27;99370.09;;;20.84;51.37
7668;BME280;3876;42.204;24.686;2023-04-23T12:51:55;99374.53;;;20.71;52.40
7668;BME280;3876;42.204;24.686;2023-04-23T12:54:25;99360.97;;;20.79;51.27
7668;BME280;3876;42.204;24.686;2023-04-23T12:56:55;99364.41;;;21.03;50.11
7668;BME280;3876;42.204;24.686;2023-04-23T12:59:22;99366.66;;;21.31;50.03
7668;BME280;3876;42.204;24.686;2023-04-23T13:01:49;99371.28;;;21.39;51.61
7668;BME280;3876;42.204;24.686;2023-04-23T13:04:16;99369.88;;;21.35;49.04
7668;BME280;3876;42.204;24.686;2023-04-23T13:06:43;99364.41;;;21.38;48.64
7668;BME280;3876;42.204;24.686;2023-04-23T13:09:10;99356.44;;;21.28;48.64